Wed, 22 Sep 2021 00:30:22 UTC | login

Information for RPM rh-java-common-qdox-0:1.12.1-9.13.bootstrap1.el6.noarch.rpm

ID23528
Namerh-java-common-qdox
Version1.12.1
Release9.13.bootstrap1.el6
Epoch0
Archnoarch
SummaryExtract class/interface/method definitions from sources
DescriptionQDox is a high speed, small footprint parser for extracting class/interface/method definitions from source files complete with JavaDoc @tags. It is designed to be used by active code generators or documentation tools.
Build Time2015-09-08 02:15:54 GMT
Size173,520
cc36a32594e2788153fc80d2fd83058a
LicenseASL 2.0
Buildrootsclo6-rh-java-common-rh-el6-build-5749-7396
Provides
rh-java-common-mvn(com.thoughtworks.qdox:qdox) = 1.12.1
rh-java-common-mvn(com.thoughtworks.qdox:qdox:pom:) = 1.12.1
rh-java-common-mvn(qdox:qdox) = 1.12.1
rh-java-common-mvn(qdox:qdox:pom:) = 1.12.1
rh-java-common-osgi(com.thoughtworks.qdox) = 1.6.3
rh-java-common-qdox = 0:1.12.1-9.13.bootstrap1.el6
Obsoletes No Obsoletes
Conflicts No Conflicts
Requires
java
rh-java-common-mvn(junit:junit)
rh-java-common-mvn(org.apache.ant:ant)
rh-java-common-runtime
rpmlib(CompressedFileNames) <= 3.0.4-1
rpmlib(FileDigests) <= 4.6.0-1
rpmlib(PayloadFilesHavePrefix) <= 4.0-1
rpmlib(PayloadIsXz) <= 5.2-1
rpmlib(VersionedDependencies) <= 3.0.3-1
Recommends No Recommends
Suggests No Suggests
Supplements No Supplements
Enhances No Enhances
Files
1 through 6 of 6
Name ascending sort Size
/opt/rh/rh-java-common/root/usr/share/doc/rh-java-common-qdox-1.12.14,096
/opt/rh/rh-java-common/root/usr/share/doc/rh-java-common-qdox-1.12.1/LICENSE.txt589
/opt/rh/rh-java-common/root/usr/share/doc/rh-java-common-qdox-1.12.1/README.txt1,246
/opt/rh/rh-java-common/root/usr/share/java/qdox.jar179,209
/opt/rh/rh-java-common/root/usr/share/maven-metadata/qdox.xml3,106
/opt/rh/rh-java-common/root/usr/share/maven-poms/qdox.pom12,229
Component of
Page:
1 through 50 of 211 >>>
Buildroot descending sort Created State
sclo6-rh-java-common-rh-el6-build-7989-10654 2015-10-04 22:41:30 expired
sclo6-maven30-rh-el6-build-7988-10652 2015-10-04 22:41:12 expired
sclo6-maven30-rh-el6-build-7985-10640 2015-10-04 22:35:18 expired
sclo6-maven30-rh-el6-build-7983-10640 2015-10-04 22:31:37 expired
sclo6-rh-java-common-rh-el6-build-7979-10641 2015-10-04 22:30:59 expired
sclo6-maven30-rh-el6-build-7975-10627 2015-10-04 22:25:32 expired
sclo6-maven30-rh-el6-build-7972-10627 2015-10-04 22:24:23 expired
sclo6-rh-java-common-rh-el6-build-7970-10617 2015-10-04 22:23:59 expired
sclo6-rh-java-common-rh-el6-build-7969-10617 2015-10-04 22:23:46 expired
sclo6-maven30-rh-el6-build-7966-10604 2015-10-04 22:17:05 expired
sclo6-rh-java-common-rh-el6-build-7964-10600 2015-10-04 22:15:19 expired
sclo6-maven30-rh-el6-build-7960-10586 2015-10-04 22:09:04 expired
sclo6-maven30-rh-el6-build-7957-10579 2015-10-04 22:05:33 expired
sclo6-rh-java-common-rh-el6-build-7950-10568 2015-10-04 21:59:02 expired
sclo6-maven30-rh-el6-build-7949-10567 2015-10-04 21:57:50 expired
sclo6-maven30-rh-el6-build-7946-10557 2015-10-04 21:53:26 expired
sclo6-rh-java-common-rh-el6-build-7944-10543 2015-10-04 21:53:04 expired
sclo6-rh-java-common-rh-el6-build-7943-10543 2015-10-04 21:50:50 expired
sclo6-maven30-rh-el6-build-7940-10533 2015-10-04 21:45:31 expired
sclo6-rh-java-common-rh-el6-build-7939-10534 2015-10-04 21:44:46 expired
sclo6-rh-java-common-rh-el6-build-7930-10525 2015-10-04 21:34:12 expired
sclo6-maven30-rh-el6-build-7929-10524 2015-10-04 21:33:55 expired
sclo6-maven30-rh-el6-build-7927-10509 2015-10-04 21:27:48 expired
sclo6-rh-java-common-rh-el6-build-7924-10511 2015-10-04 21:27:11 expired
sclo6-maven30-rh-el6-build-7923-10509 2015-10-04 21:27:04 expired
sclo6-maven30-rh-el6-build-7921-10509 2015-10-04 21:26:57 expired
sclo6-rh-java-common-rh-el6-build-7920-10511 2015-10-04 21:26:40 expired
sclo6-maven30-rh-el6-build-7913-10500 2015-10-04 21:20:15 expired
sclo6-rh-java-common-rh-el6-build-7909-10491 2015-10-04 21:19:00 expired
sclo6-rh-java-common-rh-el6-build-7905-10482 2015-10-04 21:10:51 expired
sclo6-rh-java-common-rh-el6-build-7904-10473 2015-10-04 21:05:38 expired
sclo6-maven30-rh-el6-build-7903-10472 2015-10-04 21:05:37 expired
sclo6-maven30-rh-el6-build-7902-10472 2015-10-04 21:03:42 expired
sclo6-rh-java-common-rh-el6-build-7901-10473 2015-10-04 21:02:23 expired
sclo6-maven30-rh-el6-build-7893-10472 2015-10-04 20:56:12 expired
sclo6-maven30-rh-el6-build-7892-10472 2015-10-04 20:55:45 expired
sclo6-maven30-rh-el6-build-7890-10472 2015-10-04 20:55:41 expired
sclo6-rh-java-common-rh-el6-build-7884-10448 2015-10-04 20:50:21 expired
sclo6-rh-java-common-rh-el6-build-7878-10448 2015-10-04 20:44:06 expired
sclo6-maven30-rh-el6-build-7877-10441 2015-10-04 20:43:31 expired
sclo6-maven30-rh-el6-build-7873-10441 2015-10-04 20:41:29 expired
sclo6-maven30-rh-el6-build-7872-10432 2015-10-04 20:37:16 expired
sclo6-maven30-rh-el6-build-7871-10432 2015-10-04 20:37:11 expired
sclo6-maven30-rh-el6-build-7870-10412 2015-10-04 20:35:30 expired
sclo6-rh-java-common-rh-el6-build-7864-10413 2015-10-04 20:29:16 expired
sclo6-rh-java-common-rh-el6-build-7858-10397 2015-10-04 20:22:52 expired
sclo6-maven30-rh-el6-build-7855-10396 2015-10-04 20:21:30 expired
sclo6-rh-java-common-rh-el6-build-7842-10353 2015-10-04 20:10:08 expired
sclo6-maven30-rh-el6-build-7840-10352 2015-10-04 20:08:51 expired
sclo6-rh-java-common-rh-el6-build-7828-10343 2015-10-04 19:59:17 expired